Time;durP1;ratioP1;P1;durP2;ratioP2;P2;SDS_P1;SDS_P2;PMS_P1;PMS_P2;Temp;Humidity;BMP_temperature;BMP_pressure;BME280_temperature;BME280_humidity;BME280_pressure;Samples;Min_cycle;Max_cycle;Signal;HPM_P1;HPM_P2
2024/01/30 00:00:50;;;;;;;;;;;;;;;3.73;100.00;100957.69;4926798;29;19966;-83
2024/01/30 00:03:16;;;;;;;;;;;;;;;3.72;100.00;100955.94;4926766;29;19923;-84
2024/01/30 00:05:41;;;;;;;;;;;;;;;3.73;100.00;100959.44;4926235;29;20363;-86
2024/01/30 00:08:06;;;;;;;;;;;;;;;3.76;100.00;100957.69;4924148;29;19977;-81
2024/01/30 00:10:31;;;;;;;;;;;;;;;3.71;100.00;100962.06;4926357;29;20014;-89
2024/01/30 00:12:57;;;;;;;;;;;;;;;3.76;100.00;100959.47;4909385;29;20715;-82
2024/01/30 00:15:22;;;;;;;;;;;;;;;3.74;100.00;100959.44;4926026;29;20010;-81
2024/01/30 08:55:39;;;;;;;;;;;;;;;6.81;100.00;101007.94;5155733;23;19931;-79
2024/01/30 08:58:05;;;;;;;;;;;;;;;6.78;100.00;101007.94;4926665;29;20342;-80
2024/01/30 09:00:30;;;;;;;;;;;;;;;6.79;100.00;101009.72;4926121;29;20341;-84
2024/01/30 09:02:55;;;;;;;;;;;;;;;6.76;100.00;101005.31;4925764;29;19927;-81
2024/01/30 09:05:20;;;;;;;;;;;;;;;6.81;100.00;101013.19;4926250;29;19923;-80
2024/01/30 09:07:45;;;;;;;;;;;;;;;6.82;100.00;101017.59;4926523;29;19970;-84
2024/01/30 09:10:11;;;;;;;;;;;;;;;6.83;100.00;101014.94;4925183;29;19978;-83
2024/01/30 09:12:36;;;;;;;;;;;;;;;6.82;100.00;101017.59;4926231;29;19988;-79
2024/01/30 09:15:01;;;;;;;;;;;;;;;6.89;100.00;101021.91;4925088;29;19923;-80
2024/01/30 09:17:26;;;;;;;;;;;;;;;6.87;100.00;101018.41;4925290;29;19919;-79
2024/01/30 09:19:52;;;;;;;;;;;;;;;6.85;100.00;101025.47;4925142;29;20394;-79
2024/01/30 09:22:17;;;;;;;;;;;;;;;6.83;100.00;101019.31;4925259;29;19923;-82
2024/01/30 09:24:42;;;;;;;;;;;;;;;6.88;100.00;101020.19;4907622;29;20510;-82
2024/01/30 09:27:08;;;;;;;;;;;;;;;6.86;100.00;101033.38;4931580;29;20079;-81
2024/01/30 09:29:36;;;;;;;;;;;;;;;6.88;100.00;101031.59;4925268;29;19919;-84
2024/01/30 09:32:19;;;;;;;;;;;;;;;6.88;100.00;101033.34;4925138;29;20381;-79
2024/01/30 09:34:44;;;;;;;;;;;;;;;6.89;100.00;101041.25;4924787;29;19944;-82
2024/01/30 09:37:10;;;;;;;;;;;;;;;6.88;100.00;101046.53;4925093;29;20386;-79
2024/01/30 09:39:35;;;;;;;;;;;;;;;6.88;100.00;101055.28;4924243;29;20351;-79
2024/01/30 09:42:19;;;;;;;;;;;;;;;6.88;100.00;101054.44;4928931;29;19931;-82
2024/01/30 09:44:46;;;;;;;;;;;;;;;6.89;100.00;101049.16;4929804;29;19926;-80
2024/01/30 09:47:12;;;;;;;;;;;;;;;6.89;100.00;101043.88;4929096;29;20022;-82
2024/01/30 09:49:38;;;;;;;;;;;;;;;6.91;100.00;101039.47;4911234;29;19927;-81
2024/01/30 09:52:04;;;;;;;;;;;;;;;6.91;100.00;101043.88;4928825;29;19931;-81
2024/01/30 09:54:31;;;;;;;;;;;;;;;6.90;100.00;101047.38;4927634;29;19923;-83
2024/01/30 09:56:56;;;;;;;;;;;;;;;6.95;100.00;101042.06;4929926;29;19990;-84
2024/01/30 09:59:21;;;;;;;;;;;;;;;6.90;100.00;101044.75;4928359;29;19927;-84
2024/01/30 10:01:47;;;;;;;;;;;;;;;6.95;100.00;101048.22;4928909;29;19919;-81
2024/01/30 10:04:12;;;;;;;;;;;;;;;6.97;100.00;101040.28;4928733;29;19919;-85
2024/01/30 10:06:38;;;;;;;;;;;;;;;6.96;100.00;101055.25;4928617;29;19944;-80
2024/01/30 10:09:04;;;;;;;;;;;;;;;6.98;100.00;101057.88;4928071;29;19926;-80
2024/01/30 10:11:29;;;;;;;;;;;;;;;7.00;100.00;101062.22;4929244;29;19943;-84
2024/01/30 10:13:54;;;;;;;;;;;;;;;7.01;100.00;101073.66;4936845;29;19918;-87
2024/01/30 10:16:19;;;;;;;;;;;;;;;6.97;100.00;101075.41;4929147;29;19982;-79
2024/01/30 10:18:45;;;;;;;;;;;;;;;6.94;100.00;101078.09;4928310;29;19923;-81
2024/01/30 10:21:10;;;;;;;;;;;;;;;6.97;100.00;101066.66;4933230;29;20286;-79
2024/01/30 10:23:36;;;;;;;;;;;;;;;7.00;100.00;101062.22;4911198;29;19923;-79
2024/01/30 10:26:02;;;;;;;;;;;;;;;7.00;100.00;101064.84;4910940;29;19919;-78
2024/01/30 10:28:29;;;;;;;;;;;;;;;7.00;100.00;101059.59;4928827;29;19967;-78
2024/01/30 10:30:59;;;;;;;;;;;;;;;7.01;100.00;101053.44;4929491;29;20479;-79
2024/01/30 10:33:24;;;;;;;;;;;;;;;7.02;100.00;101070.13;4927775;29;19962;-81
2024/01/30 10:35:50;;;;;;;;;;;;;;;7.01;100.00;101056.06;4928517;29;19922;-83
2024/01/30 10:38:19;;;;;;;;;;;;;;;7.03;100.00;101054.28;4928496;29;20422;-80
2024/01/30 10:40:45;;;;;;;;;;;;;;;7.63;100.00;101052.88;4926954;29;19919;-81
2024/01/30 10:43:11;;;;;;;;;;;;;;;7.72;100.00;101043.97;4910613;29;19926;-80
2024/01/30 10:45:39;;;;;;;;;;;;;;;7.31;100.00;101046.16;4934384;29;19926;-81
2024/01/30 10:48:05;;;;;;;;;;;;;;;7.14;100.00;101046.31;4927628;29;19926;-88
2024/01/30 10:50:30;;;;;;;;;;;;;;;7.10;100.00;101052.50;4912447;29;19929;-87
2024/01/30 10:52:57;;;;;;;;;;;;;;;7.05;100.00;101049.00;4910106;29;20063;-80
2024/01/30 10:55:25;;;;;;;;;;;;;;;7.04;100.00;101045.50;4908792;29;20013;-82
2024/01/30 10:57:50;;;;;;;;;;;;;;;7.01;100.00;101037.63;4927402;29;20063;-82
2024/01/30 11:00:16;;;;;;;;;;;;;;;7.01;100.00;101035.00;4928544;29;20021;-80
2024/01/30 11:02:43;;;;;;;;;;;;;;;6.99;100.00;101049.94;4927855;29;20215;-80
2024/01/30 11:05:09;;;;;;;;;;;;;;;7.01;100.00;101048.16;4933439;29;19927;-80
2024/01/30 11:07:34;;;;;;;;;;;;;;;6.99;100.00;101059.59;4911020;29;20492;-82
2024/01/30 11:10:03;;;;;;;;;;;;;;;7.00;100.00;101049.03;4908377;29;19997;-83
2024/01/30 11:12:29;;;;;;;;;;;;;;;6.99;100.00;101051.69;4912702;29;19934;-81
2024/01/30 11:15:08;;;;;;;;;;;;;;;6.98;100.00;101050.81;4927424;29;20272;-80
2024/01/30 11:18:00;;;;;;;;;;;;;;;6.99;100.00;101044.69;4927667;29;19931;-80
2024/01/30 11:20:26;;;;;;;;;;;;;;;6.97;100.00;101041.16;4909060;29;20400;-81
2024/01/30 11:22:52;;;;;;;;;;;;;;;7.00;100.00;101046.41;4909706;29;20359;-80
2024/01/30 11:25:19;;;;;;;;;;;;;;;6.99;100.00;101041.16;4926916;29;20330;-80
2024/01/30 11:27:45;;;;;;;;;;;;;;;6.97;100.00;101046.44;4918460;29;19919;-82
2024/01/30 11:30:10;;;;;;;;;;;;;;;6.99;100.00;101043.78;4927311;29;19939;-82
2024/01/30 11:32:36;;;;;;;;;;;;;;;7.00;100.00;101037.63;4910517;29;19947;-81
2024/01/30 11:35:06;;;;;;;;;;;;;;;7.00;100.00;101033.22;4927532;29;20006;-80
2024/01/30 11:37:31;;;;;;;;;;;;;;;7.00;100.00;101038.50;4910008;29;19919;-80
2024/01/30 11:39:57;;;;;;;;;;;;;;;7.03;100.00;101032.34;4908314;29;19930;-80
2024/01/30 11:42:24;;;;;;;;;;;;;;;7.00;100.00;101035.88;4910314;29;19923;-80
2024/01/30 11:44:50;;;;;;;;;;;;;;;7.00;100.00;101027.97;4926288;29;19923;-82
2024/01/30 11:47:16;;;;;;;;;;;;;;;7.02;100.00;101031.47;4927081;29;19922;-81
2024/01/30 11:49:41;;;;;;;;;;;;;;;7.02;100.00;101013.03;4932550;29;19930;-81
2024/01/30 11:52:07;;;;;;;;;;;;;;;7.02;100.00;101018.31;4926966;29;19919;-83
2024/01/30 11:54:32;;;;;;;;;;;;;;;7.03;100.00;101025.31;4907737;29;19929;-83
2024/01/30 11:56:57;;;;;;;;;;;;;;;7.03;100.00;101013.91;4906193;29;19930;-83
2024/01/30 11:59:22;;;;;;;;;;;;;;;7.03;100.00;101013.91;4907696;29;19994;-80
2024/01/30 12:01:48;;;;;;;;;;;;;;;7.04;100.00;101007.75;4907796;29;19956;-81
2024/01/30 12:04:13;;;;;;;;;;;;;;;7.05;100.00;101010.38;4908017;29;19927;-80
2024/01/30 12:06:39;;;;;;;;;;;;;;;7.05;100.00;101007.75;4906678;29;19971;-80
2024/01/30 12:09:04;;;;;;;;;;;;;;;7.04;100.00;101005.97;4905344;29;19970;-80
2024/01/30 12:11:30;;;;;;;;;;;;;;;7.06;100.00;100998.91;4906509;29;19930;-80
2024/01/30 12:13:55;;;;;;;;;;;;;;;7.03;100.00;100998.94;4908603;29;20298;-80
2024/01/30 12:16:21;;;;;;;;;;;;;;;7.05;100.00;100997.19;4906902;29;19927;-80
2024/01/30 12:18:46;;;;;;;;;;;;;;;7.05;100.00;100989.28;4929928;29;20351;-80
2024/01/30 12:21:11;;;;;;;;;;;;;;;7.06;100.00;100992.78;4906839;29;20034;-80
2024/01/30 12:23:37;;;;;;;;;;;;;;;7.08;100.00;100991.91;4905770;29;19923;-79
2024/01/30 12:26:03;;;;;;;;;;;;;;;7.09;100.00;100985.72;4905766;29;20017;-79
2024/01/30 12:28:29;;;;;;;;;;;;;;;7.07;100.00;100976.09;4907026;29;19971;-81
2024/01/30 12:30:55;;;;;;;;;;;;;;;7.09;100.00;100983.09;4907360;29;19978;-81
2024/01/30 12:33:21;;;;;;;;;;;;;;;7.10;100.00;100978.72;4905512;29;19930;-80
2024/01/30 12:35:47;;;;;;;;;;;;;;;7.11;100.00;100979.56;4906057;29;19919;-80
2024/01/30 12:38:13;;;;;;;;;;;;;;;7.11;100.00;100976.94;4904510;29;20383;-86
2024/01/30 12:40:39;;;;;;;;;;;;;;;7.11;100.00;100974.28;4906027;29;19919;-81
2024/01/30 12:43:06;;;;;;;;;;;;;;;7.11;100.00;100977.78;4906117;29;19978;-88
2024/01/30 12:45:31;;;;;;;;;;;;;;;7.11;100.00;100984.84;4907269;29;19977;-82
2024/01/30 12:47:58;;;;;;;;;;;;;;;7.13;100.00;100972.50;4907152;29;19950;-80
2024/01/30 12:50:23;;;;;;;;;;;;;;;7.13;100.00;100977.78;4905783;29;20010;-81
2024/01/30 12:52:49;;;;;;;;;;;;;;;7.13;100.00;100973.38;4906421;29;20019;-85
2024/01/30 12:55:14;;;;;;;;;;;;;;;7.12;100.00;100970.78;4903668;29;19926;-80
2024/01/30 12:57:39;;;;;;;;;;;;;;;7.14;100.00;100975.13;4905699;29;19920;-80
2024/01/30 13:00:08;;;;;;;;;;;;;;;7.14;100.00;100971.63;4906686;29;19919;-81
2024/01/30 13:02:36;;;;;;;;;;;;;;;7.13;100.00;100972.50;4907365;29;19971;-80
2024/01/30 13:05:02;;;;;;;;;;;;;;;7.15;100.00;100970.72;4905093;29;20378;-81
2024/01/30 13:07:27;;;;;;;;;;;;;;;7.15;100.00;100970.72;4913246;29;19923;-82
2024/01/30 13:09:52;;;;;;;;;;;;;;;7.15;100.00;100976.91;4905116;29;19926;-82
2024/01/30 13:12:17;;;;;;;;;;;;;;;7.17;100.00;100979.50;4905220;29;20379;-82
2024/01/30 13:14:43;;;;;;;;;;;;;;;7.15;100.00;100976.00;4906796;29;19930;-82
2024/01/30 13:17:08;;;;;;;;;;;;;;;7.16;100.00;100977.75;4906526;29;19919;-81
2024/01/30 13:19:33;;;;;;;;;;;;;;;7.19;100.00;100988.28;4905636;29;20375;-81
2024/01/30 13:21:59;;;;;;;;;;;;;;;7.17;100.00;100990.06;4906548;29;19923;-80
2024/01/30 13:24:24;;;;;;;;;;;;;;;7.17;100.00;100990.06;4905112;29;20335;-78
2024/01/30 13:26:50;;;;;;;;;;;;;;;7.18;100.00;100983.88;4907004;29;19963;-80
2024/01/30 13:29:15;;;;;;;;;;;;;;;7.17;100.00;100983.00;4905040;29;20409;-80
2024/01/30 13:31:40;;;;;;;;;;;;;;;7.18;100.00;100995.31;4905570;29;19920;-81
2024/01/30 13:34:06;;;;;;;;;;;;;;;7.19;100.00;100985.63;4906777;29;19939;-80
2024/01/30 13:36:32;;;;;;;;;;;;;;;7.18;100.00;100992.69;4906719;29;19925;-80
2024/01/30 13:38:57;;;;;;;;;;;;;;;7.19;100.00;100989.13;4905344;29;19974;-79
2024/01/30 13:41:23;;;;;;;;;;;;;;;7.21;100.00;100990.00;4906174;29;19919;-81
2024/01/30 13:43:48;;;;;;;;;;;;;;;7.21;100.00;100981.22;4905020;29;19920;-80
2024/01/30 13:46:14;;;;;;;;;;;;;;;7.21;100.00;100990.00;4906672;29;19919;-82
2024/01/30 13:48:39;;;;;;;;;;;;;;;7.23;100.00;100984.72;4904706;29;19930;-80
2024/01/30 13:51:04;;;;;;;;;;;;;;;7.24;100.00;100981.19;4905269;29;20001;-82
2024/01/30 13:53:29;;;;;;;;;;;;;;;7.23;100.00;100984.72;4906864;29;19967;-80
2024/01/30 13:55:55;;;;;;;;;;;;;;;7.25;100.00;100980.31;4903022;29;19923;-81
2024/01/30 13:58:20;;;;;;;;;;;;;;;7.26;100.00;100989.97;4904848;29;20375;-80
2024/01/30 14:00:45;;;;;;;;;;;;;;;7.26;100.00;100984.69;4906530;29;20366;-80
2024/01/30 14:03:10;;;;;;;;;;;;;;;7.23;100.00;100988.22;4904656;29;19923;-80
2024/01/30 14:05:36;;;;;;;;;;;;;;;7.24;100.00;100991.72;4905903;29;19975;-81
2024/01/30 14:08:01;;;;;;;;;;;;;;;7.25;100.00;100985.59;4905516;29;20021;-80
2024/01/30 14:10:26;;;;;;;;;;;;;;;7.26;100.00;100985.56;4904823;29;19927;-80
2024/01/30 14:12:52;;;;;;;;;;;;;;;7.25;100.00;100986.44;4906823;29;19974;-80
2024/01/30 14:15:21;;;;;;;;;;;;;;;7.27;100.00;100983.78;4905905;29;19923;-80
2024/01/30 14:17:48;;;;;;;;;;;;;;;7.27;100.00;100987.31;4906394;29;19932;-83
2024/01/30 14:20:14;;;;;;;;;;;;;;;7.27;100.00;100989.06;4906097;29;19923;-84
2024/01/30 14:22:39;;;;;;;;;;;;;;;7.27;100.00;100986.44;4905021;29;19931;-83
2024/01/30 14:25:04;;;;;;;;;;;;;;;7.27;100.00;100989.06;4904966;29;19966;-83
2024/01/30 14:27:30;;;;;;;;;;;;;;;7.27;100.00;100989.06;4907653;29;19928;-82
2024/01/30 14:29:56;;;;;;;;;;;;;;;7.29;100.00;100982.00;4910322;29;19927;-83
2024/01/30 14:32:21;;;;;;;;;;;;;;;7.27;100.00;100979.41;4909819;29;19923;-80
2024/01/30 14:34:46;;;;;;;;;;;;;;;7.28;100.00;100982.91;4909238;29;19922;-80
2024/01/30 14:37:12;;;;;;;;;;;;;;;7.29;100.00;100984.63;4908233;29;19926;-81
2024/01/30 14:39:37;;;;;;;;;;;;;;;7.27;100.00;100984.69;4906944;29;20391;-80
2024/01/30 14:42:03;;;;;;;;;;;;;;;7.31;100.00;100989.91;4908040;29;20320;-82
2024/01/30 14:44:29;;;;;;;;;;;;;;;7.31;100.00;100993.44;4909010;29;19926;-80
2024/01/30 14:46:55;;;;;;;;;;;;;;;7.30;100.00;100996.94;4909399;29;20351;-80
2024/01/30 14:49:20;;;;;;;;;;;;;;;7.33;100.00;101006.59;4908574;29;19919;-80
2024/01/30 14:51:46;;;;;;;;;;;;;;;7.32;100.00;101007.47;4908341;29;19935;-81
2024/01/30 14:54:12;;;;;;;;;;;;;;;7.33;100.00;101001.31;4906280;29;19929;-80
2024/01/30 14:56:37;;;;;;;;;;;;;;;7.34;100.00;101005.69;4899750;29;19923;-81
2024/01/30 14:59:02;;;;;;;;;;;;;;;7.33;100.00;101012.75;4895939;29;19978;-82
2024/01/30 15:01:27;;;;;;;;;;;;;;;7.33;100.00;101012.75;4899492;29;20423;-82
2024/01/30 15:03:54;;;;;;;;;;;;;;;7.33;100.00;101012.75;4896587;29;19927;-81
2024/01/30 15:06:22;;;;;;;;;;;;;;;7.34;100.00;101006.59;4898683;29;20366;-80
2024/01/30 15:08:47;;;;;;;;;;;;;;;7.34;100.00;101009.22;4898017;29;19963;-82
2024/01/30 15:11:13;;;;;;;;;;;;;;;7.34;100.00;101006.59;4897735;29;19970;-79
2024/01/30 15:13:38;;;;;;;;;;;;;;;7.36;100.00;101011.84;4897723;29;19975;-82
2024/01/30 15:16:05;;;;;;;;;;;;;;;7.35;100.00;101008.31;4899375;29;20772;-80
2024/01/30 15:18:30;;;;;;;;;;;;;;;7.35;100.00;101005.69;4899019;29;19915;-79
2024/01/30 15:20:56;;;;;;;;;;;;;;;7.36;100.00;101006.56;4897966;29;19931;-81
2024/01/30 15:23:21;;;;;;;;;;;;;;;7.37;100.00;101010.94;4898024;29;20001;-79
2024/01/30 15:25:47;;;;;;;;;;;;;;;7.36;100.00;101010.06;4897690;29;19937;-86
2024/01/30 15:28:13;;;;;;;;;;;;;;;7.37;100.00;101008.31;4897726;29;19920;-80
2024/01/30 15:30:38;;;;;;;;;;;;;;;7.36;100.00;101004.78;4898923;29;19967;-80
2024/01/30 15:33:04;;;;;;;;;;;;;;;7.38;100.00;101005.66;4898875;29;19924;-83
2024/01/30 15:35:29;;;;;;;;;;;;;;;7.39;100.00;101014.44;4897022;29;19919;-80
2024/01/30 15:37:54;;;;;;;;;;;;;;;7.39;100.00;101012.69;4897707;29;19928;-81
2024/01/30 15:40:20;;;;;;;;;;;;;;;7.37;100.00;101014.47;4894319;29;19923;-80
2024/01/30 15:42:45;;;;;;;;;;;;;;;7.39;100.00;101009.19;4898756;29;19927;-80
2024/01/30 15:45:11;;;;;;;;;;;;;;;7.39;100.00;101012.69;4896438;29;19934;-80
2024/01/30 15:47:36;;;;;;;;;;;;;;;7.40;100.00;101022.34;4897035;29;20303;-80
2024/01/30 15:50:02;;;;;;;;;;;;;;;7.42;100.00;101025.84;4895288;29;20006;-81
2024/01/30 15:52:27;;;;;;;;;;;;;;;7.43;100.00;101034.59;4897142;29;19932;-80
2024/01/30 15:54:52;;;;;;;;;;;;;;;7.39;100.00;101028.50;4895320;29;19920;-79
2024/01/30 15:57:18;;;;;;;;;;;;;;;7.40;100.00;101032.91;4909575;29;19926;-81
2024/01/30 15:59:43;;;;;;;;;;;;;;;7.42;100.00;101041.66;4926745;29;19975;-80
2024/01/30 16:02:08;;;;;;;;;;;;;;;7.42;100.00;101041.66;4925910;29;20414;-81
2024/01/30 16:04:33;;;;;;;;;;;;;;;7.42;100.00;101039.03;4926562;29;20300;-81
2024/01/30 16:06:59;;;;;;;;;;;;;;;7.45;100.00;101046.00;4926507;29;19920;-80
2024/01/30 16:09:24;;;;;;;;;;;;;;;7.46;100.00;101050.41;4925591;29;19926;-79
2024/01/30 16:11:50;;;;;;;;;;;;;;;7.46;100.00;101053.03;4909426;29;19934;-79
2024/01/30 16:14:15;;;;;;;;;;;;;;;7.44;100.00;101058.34;4927524;29;19923;-81
2024/01/30 16:16:40;;;;;;;;;;;;;;;7.44;100.00;101055.69;4926089;29;20370;-80
2024/01/30 16:19:06;;;;;;;;;;;;;;;7.46;100.00;101064.44;4908710;29;19955;-80
2024/01/30 16:21:31;;;;;;;;;;;;;;;7.45;100.00;101053.91;4927546;29;20408;-80
2024/01/30 16:23:57;;;;;;;;;;;;;;;7.45;100.00;101065.38;4925808;29;19927;-81
2024/01/30 16:26:23;;;;;;;;;;;;;;;7.46;100.00;101060.94;4908927;29;20027;-80
2024/01/30 16:28:48;;;;;;;;;;;;;;;7.46;100.00;101066.22;4926415;29;20013;-89
2024/01/30 16:31:19;;;;;;;;;;;;;;;7.46;100.00;101063.59;4909042;29;19994;-80
2024/01/30 16:33:45;;;;;;;;;;;;;;;7.47;100.00;101065.34;4925669;29;19919;-80
2024/01/30 16:36:10;;;;;;;;;;;;;;;7.48;100.00;101063.56;4926482;29;19927;-79
2024/01/30 16:38:35;;;;;;;;;;;;;;;7.49;100.00;101067.97;4907395;29;19942;-81
2024/01/30 16:41:00;;;;;;;;;;;;;;;7.48;100.00;101074.13;4906818;29;19981;-81
2024/01/30 16:43:26;;;;;;;;;;;;;;;7.49;100.00;101065.34;4926394;29;19950;-81
2024/01/30 16:45:51;;;;;;;;;;;;;;;7.48;100.00;101077.63;4909198;29;19926;-88
2024/01/30 16:48:20;;;;;;;;;;;;;;;7.49;100.00;101079.38;4908416;29;19923;-83
2024/01/30 16:50:45;;;;;;;;;;;;;;;7.51;100.00;101084.66;4907719;29;19966;-81
2024/01/30 16:53:11;;;;;;;;;;;;;;;7.50;100.00;101094.34;4925902;29;20563;-80
2024/01/30 16:55:36;;;;;;;;;;;;;;;7.49;100.00;101096.97;4930839;29;19954;-80
2024/01/30 16:58:01;;;;;;;;;;;;;;;7.51;100.00;101095.19;4925839;29;20329;-80
2024/01/30 17:00:26;;;;;;;;;;;;;;;7.50;100.00;101096.97;4925787;29;20278;-82
2024/01/30 17:02:52;;;;;;;;;;;;;;;7.52;100.00;101107.50;4925397;29;19938;-81
2024/01/30 17:05:17;;;;;;;;;;;;;;;7.52;100.00;101107.50;4926263;29;20375;-82
2024/01/30 17:07:42;;;;;;;;;;;;;;;7.51;100.00;101105.75;4925992;29;19930;-81
2024/01/30 17:10:08;;;;;;;;;;;;;;;7.51;100.00;101105.75;4930771;29;19919;-82
2024/01/30 17:12:33;;;;;;;;;;;;;;;7.52;100.00;101107.50;4931349;29;19929;-81
2024/01/30 17:14:58;;;;;;;;;;;;;;;7.53;100.00;101103.97;4926134;29;19923;-82
2024/01/30 17:17:24;;;;;;;;;;;;;;;7.53;100.00;101114.50;4909493;29;19918;-81
2024/01/30 17:19:49;;;;;;;;;;;;;;;7.54;100.00;101111.84;4925614;29;19930;-81
2024/01/30 17:22:14;;;;;;;;;;;;;;;7.53;100.00;101115.41;4926063;29;19930;-83
2024/01/30 17:24:39;;;;;;;;;;;;;;;7.55;100.00;101120.66;4930156;29;19927;-82
2024/01/30 17:27:04;;;;;;;;;;;;;;;7.57;100.00;101125.03;4925765;29;19927;-81
2024/01/30 17:29:36;;;;;;;;;;;;;;;7.55;100.00;101124.16;4926083;29;20018;-82
2024/01/30 17:32:01;;;;;;;;;;;;;;;7.55;100.00;101124.16;4931889;29;19930;-83
2024/01/30 17:34:27;;;;;;;;;;;;;;;7.57;100.00;101126.78;4925684;29;20005;-83
2024/01/30 17:36:52;;;;;;;;;;;;;;;7.57;100.00;101129.44;4909796;29;19945;-82
2024/01/30 17:39:36;;;;;;;;;;;;;;;7.59;100.00;101135.56;4925223;29;19919;-82
2024/01/30 17:42:01;;;;;;;;;;;;;;;7.59;100.00;101132.94;4925901;29;20303;-82
2024/01/30 17:44:26;;;;;;;;;;;;;;;7.58;100.00;101133.84;4924944;29;19923;-82
2024/01/30 17:46:52;;;;;;;;;;;;;;;7.57;100.00;101138.22;4931876;29;19926;-82
2024/01/30 17:49:17;;;;;;;;;;;;;;;7.57;100.00;101132.06;4931262;29;20026;-85
2024/01/30 17:51:42;;;;;;;;;;;;;;;7.59;100.00;101130.28;4907468;29;19963;-81
2024/01/30 17:54:08;;;;;;;;;;;;;;;7.58;100.00;101134.69;4930160;29;19923;-82
2024/01/30 17:56:33;;;;;;;;;;;;;;;7.60;100.00;101137.31;4924905;29;20025;-81
2024/01/30 17:58:58;;;;;;;;;;;;;;;7.60;100.00;101142.59;4924885;29;19919;-78
2024/01/30 18:01:24;;;;;;;;;;;;;;;7.61;100.00;101146.97;4909769;29;19915;-82
2024/01/30 18:03:52;;;;;;;;;;;;;;;7.60;100.00;101146.09;4911168;29;19919;-80
2024/01/30 18:06:17;;;;;;;;;;;;;;;7.61;100.00;101144.31;4928981;29;19974;-80
2024/01/30 18:08:43;;;;;;;;;;;;;;;7.61;100.00;101145.22;4927981;29;20034;-80
2024/01/30 18:11:08;;;;;;;;;;;;;;;7.63;100.00;101147.84;4928289;29;19926;-82
2024/01/30 18:13:34;;;;;;;;;;;;;;;7.63;100.00;101147.84;4935538;29;19919;-83
2024/01/30 18:15:59;;;;;;;;;;;;;;;7.64;100.00;101139.03;4928351;29;20393;-93
2024/01/30 18:18:26;;;;;;;;;;;;;;;7.63;100.00;101140.81;4933884;29;19919;-83
2024/01/30 18:20:51;;;;;;;;;;;;;;;7.64;100.00;101139.03;4928592;29;19919;-83
2024/01/30 18:23:16;;;;;;;;;;;;;;;7.66;100.00;101146.94;4928264;29;20452;-83
2024/01/30 18:25:42;;;;;;;;;;;;;;;7.64;100.00;101150.47;4927562;29;19926;-85
2024/01/30 18:28:07;;;;;;;;;;;;;;;7.65;100.00;101156.63;4928698;29;19919;-84
2024/01/30 18:30:32;;;;;;;;;;;;;;;7.67;100.00;101160.09;4928419;29;19919;-83
2024/01/30 18:32:58;;;;;;;;;;;;;;;7.64;100.00;101160.13;4928597;29;19918;-82
2024/01/30 18:35:23;;;;;;;;;;;;;;;7.64;100.00;101158.38;4927653;29;20370;-84
2024/01/30 18:37:48;;;;;;;;;;;;;;;7.67;100.00;101160.09;4928763;29;20272;-83
2024/01/30 18:40:14;;;;;;;;;;;;;;;7.66;100.00;101158.38;4910236;29;19919;-83
2024/01/30 18:42:39;;;;;;;;;;;;;;;7.67;100.00;101156.59;4927982;29;19931;-82
2024/01/30 18:45:05;;;;;;;;;;;;;;;7.66;100.00;101161.00;4928303;29;19919;-85
2024/01/30 18:47:30;;;;;;;;;;;;;;;7.66;100.00;101166.28;4929862;29;20318;-84
2024/01/30 18:50:31;;;;;;;;;;;;;;;7.68;100.00;101167.16;4927660;29;20018;-81
2024/01/30 18:52:57;;;;;;;;;;;;;;;7.68;100.00;101180.34;4909555;29;19923;-84
2024/01/30 18:55:22;;;;;;;;;;;;;;;7.69;100.00;101179.47;4926396;29;20371;-82
2024/01/30 18:57:47;;;;;;;;;;;;;;;7.68;100.00;101176.84;4926932;29;20335;-83
2024/01/30 19:00:13;;;;;;;;;;;;;;;7.70;100.00;101177.69;4927372;29;20628;-82
2024/01/30 19:02:38;;;;;;;;;;;;;;;7.70;100.00;101180.31;4927324;29;20017;-84
2024/01/30 19:05:04;;;;;;;;;;;;;;;7.71;100.00;101175.03;4927550;29;20481;-84
2024/01/30 19:07:29;;;;;;;;;;;;;;;7.70;100.00;101181.19;4909929;29;20421;-83
2024/01/30 19:09:55;;;;;;;;;;;;;;;7.72;100.00;101183.81;4926203;29;19919;-84
2024/01/30 19:12:39;;;;;;;;;;;;;;;;;;;;;
2024/01/30 19:15:09;;;;;;;;;;;;;;;7.71;100.00;101180.31;4927482;29;20302;-84
2024/01/30 19:17:34;;;;;;;;;;;;;;;7.70;100.00;101183.81;4927381;29;19969;-84
2024/01/30 19:23:02;;;;;;;;;;;;;;;7.72;100.00;101184.72;4927382;29;20021;-85
2024/01/30 19:25:29;;;;;;;;;;;;;;;7.71;100.00;101190.88;4926023;29;19968;-83
2024/01/30 19:27:58;;;;;;;;;;;;;;;7.74;100.00;101193.47;4927114;29;20818;-83
2024/01/30 19:30:23;;;;;;;;;;;;;;;7.73;100.00;101191.72;4927010;29;19923;-83
2024/01/30 19:32:49;;;;;;;;;;;;;;;7.75;100.00;101184.66;4927445;29;19961;-84
2024/01/30 19:35:14;;;;;;;;;;;;;;;7.76;100.00;101181.13;4926652;29;19962;-82
2024/01/30 19:37:39;;;;;;;;;;;;;;;7.77;100.00;101182.00;4927385;29;19966;-84
2024/01/30 19:40:05;;;;;;;;;;;;;;;7.76;100.00;101181.13;4925886;29;19914;-83
2024/01/30 19:42:31;;;;;;;;;;;;;;;7.77;100.00;101182.91;4926791;29;19961;-85
2024/01/30 19:44:56;;;;;;;;;;;;;;;7.76;100.00;101177.63;4926749;29;20378;-85
2024/01/30 19:47:21;;;;;;;;;;;;;;;7.76;100.00;101183.78;4927386;29;19921;-85
2024/01/30 19:49:46;;;;;;;;;;;;;;;7.78;100.00;101189.03;4909635;29;20291;-86
2024/01/30 19:52:13;;;;;;;;;;;;;;;7.75;100.00;101184.66;4926520;29;20394;-85
2024/01/30 19:54:41;;;;;;;;;;;;;;;7.77;100.00;101190.81;4925887;29;20013;-84
2024/01/30 19:57:06;;;;;;;;;;;;;;;7.77;100.00;101182.91;4926611;29;20997;-85
2024/01/30 19:59:34;;;;;;;;;;;;;;;7.78;100.00;101184.63;4926469;29;20006;-85
2024/01/30 20:01:59;;;;;;;;;;;;;;;7.78;100.00;101181.13;4909280;29;19919;-86
2024/01/30 20:04:25;;;;;;;;;;;;;;;7.77;100.00;101182.00;4909363;29;19926;-85
2024/01/30 20:06:50;;;;;;;;;;;;;;;7.79;100.00;101183.75;4909250;29;19919;-86
2024/01/30 20:09:15;;;;;;;;;;;;;;;7.80;100.00;101182.88;4908377;29;19929;-86
2024/01/30 20:11:41;;;;;;;;;;;;;;;6.45;100.00;101189.00;4908962;29;19919;-86
2024/01/30 20:14:06;;;;;;;;;;;;;;;5.99;100.00;101193.50;4909295;29;20382;-86
2024/01/30 20:16:38;;;;;;;;;;;;;;;5.80;100.00;101183.84;4927493;29;19961;-86
2024/01/30 20:19:03;;;;;;;;;;;;;;;5.72;100.00;101189.09;4926094;29;19926;-85
2024/01/30 20:21:29;;;;;;;;;;;;;;;5.64;100.00;101189.09;4908846;29;19927;-87
2024/01/30 20:23:54;;;;;;;;;;;;;;;5.61;100.00;101194.34;4908504;29;19926;-85
2024/01/30 20:26:19;;;;;;;;;;;;;;;5.58;100.00;101196.97;4926030;29;19922;-84
2024/01/30 20:28:44;;;;;;;;;;;;;;;5.59;100.00;101196.13;4926642;29;20338;-86
2024/01/30 20:31:11;;;;;;;;;;;;;;;5.58;100.00;101199.59;4926169;29;19954;-85
2024/01/30 20:33:36;;;;;;;;;;;;;;;5.50;100.00;101205.75;4909198;29;19923;-89
2024/01/30 20:36:03;;;;;;;;;;;;;;;5.50;100.00;101201.38;4926460;29;19966;-86
2024/01/30 20:38:29;;;;;;;;;;;;;;;5.48;100.00;101205.75;4908814;29;20289;-85
2024/01/30 20:40:54;;;;;;;;;;;;;;;5.44;100.00;101201.34;4924670;29;19919;-84
2024/01/30 20:43:19;;;;;;;;;;;;;;;5.37;100.00;101195.22;4925868;29;20355;-87
2024/01/30 20:45:44;;;;;;;;;;;;;;;5.38;100.00;101202.25;4926769;29;20382;-84
2024/01/30 20:48:10;;;;;;;;;;;;;;;5.34;100.00;101210.13;4925530;29;19923;-87
2024/01/30 20:50:35;;;;;;;;;;;;;;;5.28;100.00;101209.25;4932676;29;19925;-86
2024/01/30 20:53:00;;;;;;;;;;;;;;;5.24;100.00;101207.47;4925659;29;19962;-85
2024/01/30 20:55:25;;;;;;;;;;;;;;;5.26;100.00;101211.00;4931335;29;19923;-85
2024/01/30 20:57:50;;;;;;;;;;;;;;;5.25;100.00;101217.13;4931962;29;19941;-85
2024/01/30 21:00:16;;;;;;;;;;;;;;;5.21;100.00;101223.22;4925622;29;19923;-84
2024/01/30 21:02:41;;;;;;;;;;;;;;;5.17;100.00;101225.84;4908047;29;19945;-85
2024/01/30 21:05:07;;;;;;;;;;;;;;;5.12;100.00;101220.56;4925457;29;19926;-88
2024/01/30 21:07:32;;;;;;;;;;;;;;;5.05;100.00;101213.56;4926208;29;19946;-86
2024/01/30 21:09:57;;;;;;;;;;;;;;;5.00;100.00;101212.69;4906903;29;19919;-85
2024/01/30 21:12:22;;;;;;;;;;;;;;;5.00;100.00;101204.81;4925308;29;19919;-81